ENHV/HVG METAR and TAF weather

Enter ICAO airport designator
Station Type Date Time Source
ENHV METAR 2018/09/20 16:50 UTC NOAA

ENHV 201650Z 12015KT 9999 RA FEW008 SCT017 BKN025 10/08 Q0981


Station Type Date Time Source
ENHV Decoded METAR 2018/09/20 16:50 UTC NOAA

Honningsvag / Valan, Norway (ENHV) 71-01N 025-59E 14M
Sep 20, 2018 - 12:50 PM EDT / 2018.09.20 1650 UTC
Wind: from the ESE (120 degrees) at 17 MPH (15 KT):0
Visibility: greater than 7 mile(s):0
Sky conditions: mostly cloudy
Weather: rain
Temperature: 50 F (10 C)
Dew Point: 46 F (8 C)
Relative Humidity: 87%
Pressure (altimeter): 28.97 in. Hg (0981 hPa)
ob: ENHV 201650Z 12015KT 9999 RA FEW008 SCT017 BKN025 10/08 Q0981
cycle: 17

Station Type Date Time Source
ENHV TAF UTC NOAA

Error!


Example: see airport list